sensor_id;sensor_type;location;lat;lon;timestamp;P1;durP1;ratioP1;P2;durP2;ratioP2
4355;SDS011;64374;51.482;7.408;2022-11-15T00:00:36;7.90;;;6.30;;
4355;SDS011;64374;51.482;7.408;2022-11-15T00:03:24;11.93;;;5.60;;
4355;SDS011;64374;51.482;7.408;2022-11-15T00:06:13;11.13;;;6.50;;
4355;SDS011;64374;51.482;7.408;2022-11-15T00:09:01;8.27;;;5.80;;
4355;SDS011;64374;51.482;7.408;2022-11-15T00:11:50;10.30;;;6.10;;
4355;SDS011;64374;51.482;7.408;2022-11-15T00:14:38;8.00;;;6.00;;
4355;SDS011;64374;51.482;7.408;2022-11-15T00:17:25;6.57;;;5.23;;
4355;SDS011;64374;51.482;7.408;2022-11-15T00:20:12;10.63;;;6.60;;
4355;SDS011;64374;51.482;7.408;2022-11-15T00:22:59;8.57;;;5.60;;
4355;SDS011;64374;51.482;7.408;2022-11-15T00:25:54;10.43;;;6.47;;
4355;SDS011;64374;51.482;7.408;2022-11-15T00:28:44;8.70;;;5.53;;
4355;SDS011;64374;51.482;7.408;2022-11-15T00:31:31;14.23;;;6.40;;
4355;SDS011;64374;51.482;7.408;2022-11-15T00:34:20;10.03;;;5.30;;
4355;SDS011;64374;51.482;7.408;2022-11-15T00:37:09;8.27;;;5.93;;
4355;SDS011;64374;51.482;7.408;2022-11-15T00:39:58;7.43;;;5.40;;
4355;SDS011;64374;51.482;7.408;2022-11-15T00:43:00;9.10;;;5.80;;
4355;SDS011;64374;51.482;7.408;2022-11-15T00:45:51;7.87;;;5.90;;
4355;SDS011;64374;51.482;7.408;2022-11-15T00:48:39;9.97;;;6.20;;
4355;SDS011;64374;51.482;7.408;2022-11-15T00:51:26;8.83;;;5.60;;
4355;SDS011;64374;51.482;7.408;2022-11-15T00:54:15;7.97;;;5.43;;
4355;SDS011;64374;51.482;7.408;2022-11-15T00:57:02;7.40;;;5.37;;
4355;SDS011;64374;51.482;7.408;2022-11-15T00:59:50;11.93;;;6.07;;
4355;SDS011;64374;51.482;7.408;2022-11-15T01:02:38;8.50;;;6.00;;
4355;SDS011;64374;51.482;7.408;2022-11-15T01:05:26;9.20;;;6.13;;
4355;SDS011;64374;51.482;7.408;2022-11-15T01:08:18;12.57;;;5.57;;
4355;SDS011;64374;51.482;7.408;2022-11-15T01:11:06;10.73;;;5.10;;
4355;SDS011;64374;51.482;7.408;2022-11-15T01:13:55;8.53;;;5.83;;
4355;SDS011;64374;51.482;7.408;2022-11-15T01:16:43;10.10;;;5.73;;
4355;SDS011;64374;51.482;7.408;2022-11-15T01:19:31;10.63;;;6.10;;
4355;SDS011;64374;51.482;7.408;2022-11-15T01:22:19;10.13;;;4.90;;
4355;SDS011;64374;51.482;7.408;2022-11-15T01:25:06;9.70;;;5.67;;
4355;SDS011;64374;51.482;7.408;2022-11-15T01:27:53;8.20;;;5.77;;
4355;SDS011;64374;51.482;7.408;2022-11-15T01:30:42;7.00;;;4.90;;
4355;SDS011;64374;51.482;7.408;2022-11-15T01:33:29;8.17;;;6.00;;
4355;SDS011;64374;51.482;7.408;2022-11-15T01:36:21;8.30;;;5.60;;
4355;SDS011;64374;51.482;7.408;2022-11-15T01:39:09;12.73;;;5.90;;
4355;SDS011;64374;51.482;7.408;2022-11-15T01:41:56;9.00;;;5.30;;
4355;SDS011;64374;51.482;7.408;2022-11-15T01:45:10;7.73;;;6.07;;
4355;SDS011;64374;51.482;7.408;2022-11-15T01:48:01;8.03;;;5.97;;
4355;SDS011;64374;51.482;7.408;2022-11-15T01:50:48;5.87;;;5.00;;
4355;SDS011;64374;51.482;7.408;2022-11-15T01:53:40;12.33;;;5.80;;
4355;SDS011;64374;51.482;7.408;2022-11-15T01:56:32;7.30;;;5.53;;
4355;SDS011;64374;51.482;7.408;2022-11-15T01:59:24;7.40;;;5.40;;
4355;SDS011;64374;51.482;7.408;2022-11-15T02:02:12;9.23;;;6.20;;
4355;SDS011;64374;51.482;7.408;2022-11-15T02:04:59;8.87;;;5.40;;
4355;SDS011;64374;51.482;7.408;2022-11-15T02:07:50;9.63;;;6.33;;
4355;SDS011;64374;51.482;7.408;2022-11-15T02:10:39;7.20;;;5.47;;
4355;SDS011;64374;51.482;7.408;2022-11-15T02:13:26;7.17;;;5.30;;
4355;SDS011;64374;51.482;7.408;2022-11-15T02:16:16;5.80;;;5.10;;
4355;SDS011;64374;51.482;7.408;2022-11-15T02:19:16;11.20;;;6.20;;
4355;SDS011;64374;51.482;7.408;2022-11-15T02:22:22;10.83;;;6.10;;
4355;SDS011;64374;51.482;7.408;2022-11-15T02:25:29;9.50;;;5.50;;
4355;SDS011;64374;51.482;7.408;2022-11-15T02:28:35;7.10;;;5.20;;
4355;SDS011;64374;51.482;7.408;2022-11-15T02:31:35;5.80;;;4.60;;
4355;SDS011;64374;51.482;7.408;2022-11-15T02:34:32;9.23;;;5.23;;
4355;SDS011;64374;51.482;7.408;2022-11-15T02:37:29;8.63;;;5.60;;
4355;SDS011;64374;51.482;7.408;2022-11-15T02:40:23;8.10;;;5.80;;
4355;SDS011;64374;51.482;7.408;2022-11-15T02:43:22;13.73;;;6.20;;
4355;SDS011;64374;51.482;7.408;2022-11-15T02:46:34;8.83;;;6.30;;
4355;SDS011;64374;51.482;7.408;2022-11-15T02:49:43;10.23;;;5.67;;
4355;SDS011;64374;51.482;7.408;2022-11-15T02:52:32;10.33;;;5.57;;
4355;SDS011;64374;51.482;7.408;2022-11-15T02:55:32;9.00;;;5.80;;
4355;SDS011;64374;51.482;7.408;2022-11-15T02:58:35;8.70;;;6.50;;
4355;SDS011;64374;51.482;7.408;2022-11-15T03:01:50;14.80;;;6.10;;
4355;SDS011;64374;51.482;7.408;2022-11-15T03:04:49;9.50;;;6.20;;
4355;SDS011;64374;51.482;7.408;2022-11-15T03:07:43;11.40;;;6.17;;
4355;SDS011;64374;51.482;7.408;2022-11-15T03:10:46;7.40;;;5.80;;
4355;SDS011;64374;51.482;7.408;2022-11-15T03:13:42;8.57;;;5.33;;
4355;SDS011;64374;51.482;7.408;2022-11-15T03:16:36;8.47;;;5.73;;
4355;SDS011;64374;51.482;7.408;2022-11-15T03:19:31;8.97;;;5.30;;
4355;SDS011;64374;51.482;7.408;2022-11-15T03:22:24;7.67;;;5.47;;
4355;SDS011;64374;51.482;7.408;2022-11-15T03:25:16;9.07;;;6.40;;
4355;SDS011;64374;51.482;7.408;2022-11-15T03:28:05;8.67;;;6.20;;
4355;SDS011;64374;51.482;7.408;2022-11-15T03:30:56;7.97;;;4.70;;
4355;SDS011;64374;51.482;7.408;2022-11-15T03:33:44;9.40;;;5.50;;
4355;SDS011;64374;51.482;7.408;2022-11-15T03:36:42;10.73;;;6.57;;
4355;SDS011;64374;51.482;7.408;2022-11-15T03:39:30;7.07;;;5.57;;
4355;SDS011;64374;51.482;7.408;2022-11-15T03:42:20;6.23;;;5.10;;
4355;SDS011;64374;51.482;7.408;2022-11-15T03:45:16;8.87;;;5.87;;
4355;SDS011;64374;51.482;7.408;2022-11-15T03:48:10;8.87;;;5.40;;
4355;SDS011;64374;51.482;7.408;2022-11-15T03:51:01;7.80;;;5.63;;
4355;SDS011;64374;51.482;7.408;2022-11-15T03:53:50;9.10;;;5.57;;
4355;SDS011;64374;51.482;7.408;2022-11-15T03:56:38;5.67;;;4.80;;
4355;SDS011;64374;51.482;7.408;2022-11-15T03:59:25;5.90;;;4.80;;
4355;SDS011;64374;51.482;7.408;2022-11-15T04:02:13;6.10;;;4.70;;
4355;SDS011;64374;51.482;7.408;2022-11-15T04:05:02;8.93;;;4.67;;
4355;SDS011;64374;51.482;7.408;2022-11-15T04:07:53;5.67;;;5.00;;
4355;SDS011;64374;51.482;7.408;2022-11-15T04:10:41;8.43;;;4.93;;
4355;SDS011;64374;51.482;7.408;2022-11-15T04:13:28;12.73;;;5.03;;
4355;SDS011;64374;51.482;7.408;2022-11-15T04:16:16;5.87;;;4.80;;
4355;SDS011;64374;51.482;7.408;2022-11-15T04:19:03;7.60;;;4.57;;
4355;SDS011;64374;51.482;7.408;2022-11-15T04:22:11;7.87;;;5.33;;
4355;SDS011;64374;51.482;7.408;2022-11-15T04:25:16;8.40;;;4.77;;
4355;SDS011;64374;51.482;7.408;2022-11-15T04:28:09;7.33;;;5.53;;
4355;SDS011;64374;51.482;7.408;2022-11-15T04:30:58;9.70;;;5.30;;
4355;SDS011;64374;51.482;7.408;2022-11-15T04:33:45;8.00;;;5.60;;
4355;SDS011;64374;51.482;7.408;2022-11-15T04:36:33;7.00;;;4.60;;
4355;SDS011;64374;51.482;7.408;2022-11-15T04:39:37;6.37;;;4.67;;
4355;SDS011;64374;51.482;7.408;2022-11-15T04:42:25;10.27;;;5.37;;
4355;SDS011;64374;51.482;7.408;2022-11-15T04:45:13;7.60;;;5.03;;
4355;SDS011;64374;51.482;7.408;2022-11-15T04:48:01;7.17;;;5.07;;
4355;SDS011;64374;51.482;7.408;2022-11-15T04:50:50;6.13;;;5.50;;
4355;SDS011;64374;51.482;7.408;2022-11-15T04:53:37;5.77;;;5.00;;
4355;SDS011;64374;51.482;7.408;2022-11-15T04:56:26;7.53;;;5.47;;
4355;SDS011;64374;51.482;7.408;2022-11-15T04:59:14;7.40;;;5.73;;
4355;SDS011;64374;51.482;7.408;2022-11-15T05:02:04;5.47;;;4.63;;
4355;SDS011;64374;51.482;7.408;2022-11-15T05:04:52;6.00;;;4.83;;
4355;SDS011;64374;51.482;7.408;2022-11-15T05:07:38;6.93;;;5.40;;
4355;SDS011;64374;51.482;7.408;2022-11-15T05:10:25;7.70;;;4.97;;
4355;SDS011;64374;51.482;7.408;2022-11-15T05:13:14;6.63;;;5.00;;
4355;SDS011;64374;51.482;7.408;2022-11-15T05:16:01;6.57;;;4.93;;
4355;SDS011;64374;51.482;7.408;2022-11-15T05:18:53;6.80;;;4.63;;
4355;SDS011;64374;51.482;7.408;2022-11-15T05:21:43;5.90;;;5.07;;
4355;SDS011;64374;51.482;7.408;2022-11-15T05:24:31;7.50;;;5.50;;
4355;SDS011;64374;51.482;7.408;2022-11-15T05:27:18;6.90;;;5.00;;
4355;SDS011;64374;51.482;7.408;2022-11-15T05:30:07;6.20;;;4.87;;
4355;SDS011;64374;51.482;7.408;2022-11-15T05:32:55;7.50;;;5.20;;
4355;SDS011;64374;51.482;7.408;2022-11-15T05:35:45;6.90;;;4.70;;
4355;SDS011;64374;51.482;7.408;2022-11-15T05:38:39;5.27;;;4.87;;
4355;SDS011;64374;51.482;7.408;2022-11-15T05:41:27;7.03;;;5.50;;
4355;SDS011;64374;51.482;7.408;2022-11-15T05:44:25;7.60;;;5.20;;
4355;SDS011;64374;51.482;7.408;2022-11-15T05:47:13;7.10;;;5.10;;
4355;SDS011;64374;51.482;7.408;2022-11-15T05:50:04;5.20;;;4.70;;
4355;SDS011;64374;51.482;7.408;2022-11-15T05:52:53;5.93;;;5.00;;
4355;SDS011;64374;51.482;7.408;2022-11-15T05:55:48;4.40;;;4.00;;
4355;SDS011;64374;51.482;7.408;2022-11-15T05:58:36;5.90;;;4.63;;
4355;SDS011;64374;51.482;7.408;2022-11-15T06:01:24;9.43;;;4.53;;
4355;SDS011;64374;51.482;7.408;2022-11-15T06:04:12;6.80;;;4.17;;
4355;SDS011;64374;51.482;7.408;2022-11-15T06:07:01;7.00;;;4.80;;
4355;SDS011;64374;51.482;7.408;2022-11-15T06:09:52;6.57;;;4.13;;
4355;SDS011;64374;51.482;7.408;2022-11-15T06:12:41;10.00;;;4.67;;
4355;SDS011;64374;51.482;7.408;2022-11-15T06:15:28;5.20;;;4.40;;
4355;SDS011;64374;51.482;7.408;2022-11-15T06:18:16;6.20;;;4.60;;
4355;SDS011;64374;51.482;7.408;2022-11-15T06:21:05;7.03;;;5.40;;
4355;SDS011;64374;51.482;7.408;2022-11-15T06:23:53;4.83;;;3.60;;
4355;SDS011;64374;51.482;7.408;2022-11-15T06:26:42;5.73;;;4.23;;
4355;SDS011;64374;51.482;7.408;2022-11-15T06:29:37;4.40;;;3.37;;
4355;SDS011;64374;51.482;7.408;2022-11-15T06:32:24;5.57;;;3.87;;
4355;SDS011;64374;51.482;7.408;2022-11-15T06:35:12;5.83;;;4.00;;
4355;SDS011;64374;51.482;7.408;2022-11-15T06:38:01;4.60;;;3.43;;
4355;SDS011;64374;51.482;7.408;2022-11-15T06:40:49;5.50;;;3.60;;
4355;SDS011;64374;51.482;7.408;2022-11-15T06:43:38;3.03;;;2.73;;
4355;SDS011;64374;51.482;7.408;2022-11-15T06:46:26;3.43;;;3.00;;
4355;SDS011;64374;51.482;7.408;2022-11-15T06:49:17;5.20;;;2.80;;
4355;SDS011;64374;51.482;7.408;2022-11-15T06:52:04;4.60;;;2.67;;
4355;SDS011;64374;51.482;7.408;2022-11-15T06:54:51;5.80;;;2.60;;
4355;SDS011;64374;51.482;7.408;2022-11-15T06:57:45;6.40;;;2.40;;
4355;SDS011;64374;51.482;7.408;2022-11-15T07:00:35;3.50;;;2.60;;
4355;SDS011;64374;51.482;7.408;2022-11-15T07:03:22;2.07;;;1.90;;
4355;SDS011;64374;51.482;7.408;2022-11-15T07:06:09;3.70;;;2.33;;
4355;SDS011;64374;51.482;7.408;2022-11-15T07:08:56;2.73;;;2.50;;
4355;SDS011;64374;51.482;7.408;2022-11-15T07:11:50;3.10;;;2.03;;
4355;SDS011;64374;51.482;7.408;2022-11-15T07:14:37;2.90;;;2.00;;
4355;SDS011;64374;51.482;7.408;2022-11-15T07:17:27;3.80;;;2.50;;
4355;SDS011;64374;51.482;7.408;2022-11-15T07:20:15;1.70;;;1.60;;
4355;SDS011;64374;51.482;7.408;2022-11-15T07:23:11;2.40;;;2.17;;
4355;SDS011;64374;51.482;7.408;2022-11-15T07:25:58;4.43;;;2.63;;
4355;SDS011;64374;51.482;7.408;2022-11-15T07:28:47;2.73;;;2.37;;
4355;SDS011;64374;51.482;7.408;2022-11-15T07:31:34;2.53;;;2.00;;
4355;SDS011;64374;51.482;7.408;2022-11-15T07:34:22;5.33;;;2.83;;
4355;SDS011;64374;51.482;7.408;2022-11-15T07:37:10;3.53;;;2.30;;
4355;SDS011;64374;51.482;7.408;2022-11-15T07:39:57;2.80;;;2.07;;
4355;SDS011;64374;51.482;7.408;2022-11-15T07:42:44;2.30;;;1.70;;
4355;SDS011;64374;51.482;7.408;2022-11-15T07:45:44;3.27;;;1.97;;
4355;SDS011;64374;51.482;7.408;2022-11-15T07:48:32;2.27;;;2.00;;
4355;SDS011;64374;51.482;7.408;2022-11-15T07:51:30;2.17;;;1.97;;
4355;SDS011;64374;51.482;7.408;2022-11-15T07:54:17;2.87;;;2.23;;
4355;SDS011;64374;51.482;7.408;2022-11-15T07:57:04;2.20;;;2.00;;
4355;SDS011;64374;51.482;7.408;2022-11-15T07:59:55;5.70;;;2.10;;
4355;SDS011;64374;51.482;7.408;2022-11-15T08:02:42;2.50;;;1.83;;
4355;SDS011;64374;51.482;7.408;2022-11-15T08:05:29;3.80;;;1.97;;
4355;SDS011;64374;51.482;7.408;2022-11-15T08:08:19;2.37;;;2.17;;
4355;SDS011;64374;51.482;7.408;2022-11-15T08:11:06;1.67;;;1.57;;
4355;SDS011;64374;51.482;7.408;2022-11-15T08:13:53;4.60;;;1.80;;
4355;SDS011;64374;51.482;7.408;2022-11-15T08:16:48;1.60;;;1.50;;
4355;SDS011;64374;51.482;7.408;2022-11-15T08:19:38;3.60;;;2.23;;
4355;SDS011;64374;51.482;7.408;2022-11-15T08:22:26;8.27;;;2.03;;
4355;SDS011;64374;51.482;7.408;2022-11-15T08:25:15;2.43;;;1.90;;
4355;SDS011;64374;51.482;7.408;2022-11-15T08:28:03;5.60;;;2.00;;
4355;SDS011;64374;51.482;7.408;2022-11-15T08:30:52;2.13;;;1.80;;
4355;SDS011;64374;51.482;7.408;2022-11-15T08:33:39;1.57;;;1.20;;
4355;SDS011;64374;51.482;7.408;2022-11-15T08:36:26;1.90;;;1.67;;
4355;SDS011;64374;51.482;7.408;2022-11-15T08:39:26;2.97;;;1.80;;
4355;SDS011;64374;51.482;7.408;2022-11-15T08:42:14;3.83;;;2.10;;
4355;SDS011;64374;51.482;7.408;2022-11-15T08:45:04;2.10;;;1.70;;
4355;SDS011;64374;51.482;7.408;2022-11-15T08:47:54;1.53;;;1.40;;
4355;SDS011;64374;51.482;7.408;2022-11-15T08:50:41;3.63;;;1.67;;
4355;SDS011;64374;51.482;7.408;2022-11-15T08:53:31;7.13;;;2.00;;
4355;SDS011;64374;51.482;7.408;2022-11-15T08:56:21;1.40;;;1.30;;
4355;SDS011;64374;51.482;7.408;2022-11-15T08:59:12;4.57;;;1.63;;
4355;SDS011;64374;51.482;7.408;2022-11-15T09:01:59;1.40;;;1.30;;
4355;SDS011;64374;51.482;7.408;2022-11-15T09:04:48;3.17;;;1.20;;
4355;SDS011;64374;51.482;7.408;2022-11-15T09:07:36;3.17;;;1.40;;
4355;SDS011;64374;51.482;7.408;2022-11-15T09:10:25;1.67;;;1.33;;
4355;SDS011;64374;51.482;7.408;2022-11-15T09:13:12;2.07;;;1.50;;
4355;SDS011;64374;51.482;7.408;2022-11-15T09:16:01;1.90;;;1.70;;
4355;SDS011;64374;51.482;7.408;2022-11-15T09:18:50;1.87;;;1.50;;
4355;SDS011;64374;51.482;7.408;2022-11-15T09:21:39;1.80;;;1.70;;
4355;SDS011;64374;51.482;7.408;2022-11-15T09:24:26;2.80;;;1.50;;
4355;SDS011;64374;51.482;7.408;2022-11-15T09:27:13;2.07;;;1.30;;
4355;SDS011;64374;51.482;7.408;2022-11-15T09:30:00;2.93;;;1.63;;
4355;SDS011;64374;51.482;7.408;2022-11-15T09:32:48;1.83;;;1.53;;
4355;SDS011;64374;51.482;7.408;2022-11-15T09:35:35;4.23;;;1.57;;
4355;SDS011;64374;51.482;7.408;2022-11-15T09:38:25;1.80;;;1.50;;
4355;SDS011;64374;51.482;7.408;2022-11-15T09:44:37;4.57;;;1.60;;
4355;SDS011;64374;51.482;7.408;2022-11-15T09:47:38;2.90;;;1.33;;
4355;SDS011;64374;51.482;7.408;2022-11-15T09:50:36;6.67;;;1.20;;
4355;SDS011;64374;51.482;7.408;2022-11-15T09:53:09;1.00;;;0.90;;
4355;SDS011;64374;51.482;7.408;2022-11-15T09:55:44;1.93;;;1.30;;
4355;SDS011;64374;51.482;7.408;2022-11-15T09:58:22;1.67;;;1.47;;
4355;SDS011;64374;51.482;7.408;2022-11-15T10:00:54;2.00;;;1.10;;
4355;SDS011;64374;51.482;7.408;2022-11-15T10:03:28;2.80;;;1.17;;
4355;SDS011;64374;51.482;7.408;2022-11-15T10:06:05;1.30;;;0.90;;
4355;SDS011;64374;51.482;7.408;2022-11-15T10:08:45;1.43;;;1.07;;
4355;SDS011;64374;51.482;7.408;2022-11-15T10:11:19;1.10;;;1.00;;
4355;SDS011;64374;51.482;7.408;2022-11-15T10:14:09;2.80;;;1.40;;
4355;SDS011;64374;51.482;7.408;2022-11-15T10:16:54;3.67;;;1.17;;
4355;SDS011;64374;51.482;7.408;2022-11-15T10:19:34;1.07;;;1.00;;
4355;SDS011;64374;51.482;7.408;2022-11-15T10:22:21;2.03;;;1.43;;
4355;SDS011;64374;51.482;7.408;2022-11-15T10:25:00;4.40;;;1.60;;
4355;SDS011;64374;51.482;7.408;2022-11-15T10:27:39;1.50;;;1.30;;
4355;SDS011;64374;51.482;7.408;2022-11-15T10:30:10;3.90;;;1.00;;
4355;SDS011;64374;51.482;7.408;2022-11-15T10:32:40;2.77;;;1.30;;
4355;SDS011;64374;51.482;7.408;2022-11-15T10:35:19;1.30;;;0.90;;
4355;SDS011;64374;51.482;7.408;2022-11-15T10:37:51;1.40;;;1.30;;
4355;SDS011;64374;51.482;7.408;2022-11-15T10:40:28;1.30;;;1.07;;
4355;SDS011;64374;51.482;7.408;2022-11-15T10:43:03;1.30;;;1.20;;
4355;SDS011;64374;51.482;7.408;2022-11-15T10:45:35;2.20;;;1.20;;
4355;SDS011;64374;51.482;7.408;2022-11-15T10:48:23;1.50;;;1.30;;
4355;SDS011;64374;51.482;7.408;2022-11-15T10:50:53;1.47;;;1.10;;
4355;SDS011;64374;51.482;7.408;2022-11-15T10:53:28;1.47;;;1.20;;
4355;SDS011;64374;51.482;7.408;2022-11-15T10:56:01;1.50;;;1.23;;
4355;SDS011;64374;51.482;7.408;2022-11-15T10:58:34;2.60;;;1.10;;
4355;SDS011;64374;51.482;7.408;2022-11-15T11:01:21;1.47;;;1.03;;
4355;SDS011;64374;51.482;7.408;2022-11-15T11:03:57;1.53;;;0.97;;
4355;SDS011;64374;51.482;7.408;2022-11-15T11:06:29;3.00;;;1.00;;
4355;SDS011;64374;51.482;7.408;2022-11-15T11:09:02;1.07;;;0.87;;
4355;SDS011;64374;51.482;7.408;2022-11-15T11:11:43;1.20;;;0.87;;
4355;SDS011;64374;51.482;7.408;2022-11-15T11:14:13;3.10;;;1.30;;
4355;SDS011;64374;51.482;7.408;2022-11-15T11:17:04;2.30;;;1.30;;
4355;SDS011;64374;51.482;7.408;2022-11-15T11:22:32;3.60;;;1.57;;
4355;SDS011;64374;51.482;7.408;2022-11-15T11:25:11;1.67;;;1.40;;
4355;SDS011;64374;51.482;7.408;2022-11-15T11:27:56;4.60;;;1.20;;
4355;SDS011;64374;51.482;7.408;2022-11-15T11:30:36;2.60;;;1.20;;
4355;SDS011;64374;51.482;7.408;2022-11-15T11:33:16;2.40;;;1.00;;
4355;SDS011;64374;51.482;7.408;2022-11-15T11:35:54;1.33;;;1.23;;
4355;SDS011;64374;51.482;7.408;2022-11-15T11:38:41;1.77;;;1.20;;
4355;SDS011;64374;51.482;7.408;2022-11-15T11:41:27;1.43;;;1.00;;
4355;SDS011;64374;51.482;7.408;2022-11-15T11:44:15;1.00;;;0.90;;
4355;SDS011;64374;51.482;7.408;2022-11-15T11:46:54;1.03;;;1.03;;
4355;SDS011;64374;51.482;7.408;2022-11-15T11:49:25;4.50;;;1.50;;
4355;SDS011;64374;51.482;7.408;2022-11-15T11:52:00;2.90;;;1.23;;
4355;SDS011;64374;51.482;7.408;2022-11-15T11:54:38;1.23;;;1.13;;
4355;SDS011;64374;51.482;7.408;2022-11-15T11:57:17;1.87;;;0.97;;
4355;SDS011;64374;51.482;7.408;2022-11-15T11:59:58;1.70;;;1.30;;
4355;SDS011;64374;51.482;7.408;2022-11-15T12:02:38;1.60;;;1.00;;
4355;SDS011;64374;51.482;7.408;2022-11-15T12:05:25;0.70;;;0.70;;
4355;SDS011;64374;51.482;7.408;2022-11-15T12:07:59;2.20;;;1.40;;
4355;SDS011;64374;51.482;7.408;2022-11-15T12:10:33;2.23;;;1.60;;
4355;SDS011;64374;51.482;7.408;2022-11-15T12:13:07;3.57;;;3.27;;
4355;SDS011;64374;51.482;7.408;2022-11-15T12:15:39;5.90;;;3.80;;
4355;SDS011;64374;51.482;7.408;2022-11-15T12:18:13;4.50;;;3.50;;
4355;SDS011;64374;51.482;7.408;2022-11-15T12:20:49;1.97;;;1.30;;
4355;SDS011;64374;51.482;7.408;2022-11-15T12:23:23;1.10;;;1.00;;
4355;SDS011;64374;51.482;7.408;2022-11-15T12:25:57;3.97;;;1.20;;
4355;SDS011;64374;51.482;7.408;2022-11-15T12:28:34;2.90;;;1.77;;
4355;SDS011;64374;51.482;7.408;2022-11-15T12:31:27;1.07;;;0.90;;
4355;SDS011;64374;51.482;7.408;2022-11-15T12:34:04;1.03;;;0.90;;
4355;SDS011;64374;51.482;7.408;2022-11-15T12:36:42;1.03;;;0.93;;
4355;SDS011;64374;51.482;7.408;2022-11-15T12:39:11;1.13;;;1.00;;
4355;SDS011;64374;51.482;7.408;2022-11-15T12:41:40;1.00;;;0.90;;
4355;SDS011;64374;51.482;7.408;2022-11-15T12:44:12;2.37;;;1.00;;
4355;SDS011;64374;51.482;7.408;2022-11-15T12:47:04;2.03;;;1.00;;
4355;SDS011;64374;51.482;7.408;2022-11-15T12:49:50;1.73;;;1.20;;
4355;SDS011;64374;51.482;7.408;2022-11-15T12:52:26;1.80;;;1.10;;
4355;SDS011;64374;51.482;7.408;2022-11-15T12:55:02;3.30;;;1.00;;
4355;SDS011;64374;51.482;7.408;2022-11-15T12:58:01;1.43;;;1.00;;
4355;SDS011;64374;51.482;7.408;2022-11-15T13:00:58;1.03;;;0.70;;
4355;SDS011;64374;51.482;7.408;2022-11-15T13:03:28;1.20;;;1.10;;
4355;SDS011;64374;51.482;7.408;2022-11-15T13:06:09;1.10;;;;;
4355;SDS011;64374;51.482;7.408;2022-11-15T13:12:11;1.63;;;1.00;;
4355;SDS011;64374;51.482;7.408;2022-11-15T13:15:31;1.73;;;1.30;;
4355;SDS011;64374;51.482;7.408;2022-11-15T13:21:20;2.10;;;1.20;;
4355;SDS011;64374;51.482;7.408;2022-11-15T13:24:10;1.73;;;1.03;;
4355;SDS011;64374;51.482;7.408;2022-11-15T13:29:38;1.10;;;0.90;;
4355;SDS011;64374;51.482;7.408;2022-11-15T13:32:10;2.20;;;1.30;;
4355;SDS011;64374;51.482;7.408;2022-11-15T13:34:43;1.93;;;0.90;;
4355;SDS011;64374;51.482;7.408;2022-11-15T13:37:29;4.17;;;1.80;;
4355;SDS011;64374;51.482;7.408;2022-11-15T13:40:17;1.47;;;1.23;;
4355;SDS011;64374;51.482;7.408;2022-11-15T13:42:49;5.90;;;1.30;;
4355;SDS011;64374;51.482;7.408;2022-11-15T13:45:18;3.40;;;1.77;;
4355;SDS011;64374;51.482;7.408;2022-11-15T13:47:51;3.37;;;1.03;;
4355;SDS011;64374;51.482;7.408;2022-11-15T13:50:21;2.43;;;1.30;;
4355;SDS011;64374;51.482;7.408;2022-11-15T13:52:56;1.10;;;1.00;;
4355;SDS011;64374;51.482;7.408;2022-11-15T13:55:28;1.63;;;1.17;;
4355;SDS011;64374;51.482;7.408;2022-11-15T13:58:03;6.23;;;2.40;;
4355;SDS011;64374;51.482;7.408;2022-11-15T14:00:36;2.20;;;1.63;;
4355;SDS011;64374;51.482;7.408;2022-11-15T14:03:08;3.40;;;2.27;;
4355;SDS011;64374;51.482;7.408;2022-11-15T14:05:44;7.30;;;1.47;;
4355;SDS011;64374;51.482;7.408;2022-11-15T14:08:22;1.63;;;1.03;;
4355;SDS011;64374;51.482;7.408;2022-11-15T14:11:05;3.33;;;1.20;;
4355;SDS011;64374;51.482;7.408;2022-11-15T14:13:42;3.23;;;1.50;;
4355;SDS011;64374;51.482;7.408;2022-11-15T14:16:32;3.40;;;1.33;;
4355;SDS011;64374;51.482;7.408;2022-11-15T14:19:03;3.57;;;1.67;;
4355;SDS011;64374;51.482;7.408;2022-11-15T14:21:32;2.20;;;1.70;;
4355;SDS011;64374;51.482;7.408;2022-11-15T14:24:18;11.10;;;1.27;;
4355;SDS011;64374;51.482;7.408;2022-11-15T14:26:48;2.30;;;1.80;;
4355;SDS011;64374;51.482;7.408;2022-11-15T14:29:26;6.77;;;3.67;;
4355;SDS011;64374;51.482;7.408;2022-11-15T14:32:05;5.33;;;2.13;;
4355;SDS011;64374;51.482;7.408;2022-11-15T14:34:41;2.77;;;1.73;;
4355;SDS011;64374;51.482;7.408;2022-11-15T14:37:16;2.40;;;2.17;;
4355;SDS011;64374;51.482;7.408;2022-11-15T14:40:06;3.27;;;2.07;;
4355;SDS011;64374;51.482;7.408;2022-11-15T14:42:36;7.00;;;2.17;;
4355;SDS011;64374;51.482;7.408;2022-11-15T14:45:07;6.73;;;1.53;;
4355;SDS011;64374;51.482;7.408;2022-11-15T14:47:41;6.23;;;1.67;;
4355;SDS011;64374;51.482;7.408;2022-11-15T14:50:13;3.67;;;1.60;;
4355;SDS011;64374;51.482;7.408;2022-11-15T14:52:44;5.13;;;2.03;;
4355;SDS011;64374;51.482;7.408;2022-11-15T14:55:20;1.90;;;1.10;;
4355;SDS011;64374;51.482;7.408;2022-11-15T14:57:50;1.70;;;1.37;;
4355;SDS011;64374;51.482;7.408;2022-11-15T15:00:19;2.33;;;1.57;;
4355;SDS011;64374;51.482;7.408;2022-11-15T15:02:48;4.83;;;1.73;;
4355;SDS011;64374;51.482;7.408;2022-11-15T15:05:20;1.30;;;1.20;;
4355;SDS011;64374;51.482;7.408;2022-11-15T15:07:51;1.87;;;1.40;;
4355;SDS011;64374;51.482;7.408;2022-11-15T15:10:22;2.23;;;1.40;;
4355;SDS011;64374;51.482;7.408;2022-11-15T15:13:08;3.53;;;1.60;;
4355;SDS011;64374;51.482;7.408;2022-11-15T15:15:45;5.23;;;1.30;;
4355;SDS011;64374;51.482;7.408;2022-11-15T15:18:14;4.10;;;1.77;;
4355;SDS011;64374;51.482;7.408;2022-11-15T15:20:43;3.07;;;1.67;;
4355;SDS011;64374;51.482;7.408;2022-11-15T15:23:14;3.40;;;1.50;;
4355;SDS011;64374;51.482;7.408;2022-11-15T15:25:48;2.30;;;1.23;;
4355;SDS011;64374;51.482;7.408;2022-11-15T15:28:16;1.87;;;1.53;;
4355;SDS011;64374;51.482;7.408;2022-11-15T15:30:44;4.60;;;1.47;;
4355;SDS011;64374;51.482;7.408;2022-11-15T15:33:15;3.77;;;1.70;;
4355;SDS011;64374;51.482;7.408;2022-11-15T15:35:44;3.47;;;1.60;;
4355;SDS011;64374;51.482;7.408;2022-11-15T15:38:18;1.40;;;1.30;;
4355;SDS011;64374;51.482;7.408;2022-11-15T15:40:49;4.23;;;1.63;;
4355;SDS011;64374;51.482;7.408;2022-11-15T15:43:17;4.00;;;1.90;;
4355;SDS011;64374;51.482;7.408;2022-11-15T15:45:46;4.53;;;1.73;;
4355;SDS011;64374;51.482;7.408;2022-11-15T15:48:15;2.70;;;2.10;;
4355;SDS011;64374;51.482;7.408;2022-11-15T15:50:44;4.13;;;1.60;;
4355;SDS011;64374;51.482;7.408;2022-11-15T15:53:21;3.57;;;1.73;;
4355;SDS011;64374;51.482;7.408;2022-11-15T15:55:50;3.90;;;2.07;;
4355;SDS011;64374;51.482;7.408;2022-11-15T15:58:19;4.33;;;1.90;;
4355;SDS011;64374;51.482;7.408;2022-11-15T16:00:47;2.80;;;1.53;;
4355;SDS011;64374;51.482;7.408;2022-11-15T16:03:16;2.23;;;1.80;;
4355;SDS011;64374;51.482;7.408;2022-11-15T16:05:44;2.17;;;1.33;;
4355;SDS011;64374;51.482;7.408;2022-11-15T16:08:16;2.97;;;1.97;;
4355;SDS011;64374;51.482;7.408;2022-11-15T16:10:54;3.27;;;1.60;;
4355;SDS011;64374;51.482;7.408;2022-11-15T16:13:22;1.40;;;1.30;;
4355;SDS011;64374;51.482;7.408;2022-11-15T16:15:52;3.40;;;1.40;;
4355;SDS011;64374;51.482;7.408;2022-11-15T16:18:21;3.60;;;1.50;;
4355;SDS011;64374;51.482;7.408;2022-11-15T16:20:49;2.90;;;1.90;;
4355;SDS011;64374;51.482;7.408;2022-11-15T16:23:23;2.00;;;1.30;;
4355;SDS011;64374;51.482;7.408;2022-11-15T16:25:54;2.73;;;1.20;;
4355;SDS011;64374;51.482;7.408;2022-11-15T16:28:23;3.53;;;1.67;;
4355;SDS011;64374;51.482;7.408;2022-11-15T16:30:59;2.67;;;1.73;;
4355;SDS011;64374;51.482;7.408;2022-11-15T16:33:30;3.60;;;1.70;;
4355;SDS011;64374;51.482;7.408;2022-11-15T16:35:59;2.50;;;1.50;;
4355;SDS011;64374;51.482;7.408;2022-11-15T16:38:28;4.67;;;1.93;;
4355;SDS011;64374;51.482;7.408;2022-11-15T16:40:59;2.43;;;1.73;;
4355;SDS011;64374;51.482;7.408;2022-11-15T16:43:27;4.47;;;1.73;;
4355;SDS011;64374;51.482;7.408;2022-11-15T16:45:55;2.10;;;1.67;;
4355;SDS011;64374;51.482;7.408;2022-11-15T16:48:26;3.57;;;1.77;;
4355;SDS011;64374;51.482;7.408;2022-11-15T16:50:56;2.83;;;1.53;;
4355;SDS011;64374;51.482;7.408;2022-11-15T16:53:25;2.13;;;1.50;;
4355;SDS011;64374;51.482;7.408;2022-11-15T16:55:54;5.60;;;1.87;;
4355;SDS011;64374;51.482;7.408;2022-11-15T16:58:24;4.33;;;1.80;;